createdAt,value
2023-02-12T00:02:30.724Z,101653.95
2023-02-12T00:05:00.254Z,101654.04
2023-02-12T00:07:31.748Z,101651.75
2023-02-12T00:10:01.605Z,101651.75
2023-02-12T00:12:32.269Z,101663.00
2023-02-12T00:15:01.833Z,101661.75
2023-02-12T00:17:31.599Z,101663.43
2023-02-12T00:20:01.696Z,101670.45
2023-02-12T00:22:31.507Z,101674.38
2023-02-12T00:25:01.299Z,101679.06
2023-02-12T00:27:35.502Z,101679.11
2023-02-12T00:30:05.599Z,101686.06
2023-02-12T00:32:36.986Z,101684.72
2023-02-12T00:35:06.931Z,101686.02
2023-02-12T00:37:36.991Z,101686.02
2023-02-12T00:40:07.613Z,101693.41
2023-02-12T00:42:37.645Z,101693.41
2023-02-12T00:45:07.771Z,101687.03
2023-02-12T00:47:37.529Z,101691.81
2023-02-12T00:50:07.990Z,101691.88
2023-02-12T00:52:38.114Z,101694.05
2023-02-12T00:55:07.930Z,101698.44
2023-02-12T00:57:37.746Z,101695.27
2023-02-12T01:00:07.983Z,101686.76
2023-02-12T01:02:38.761Z,101691.77
2023-02-12T01:05:09.895Z,101699.97
2023-02-12T01:07:40.689Z,101698.16
2023-02-12T01:10:10.739Z,101697.27
2023-02-12T01:12:40.412Z,101691.04
2023-02-12T01:15:14.058Z,101711.87
2023-02-12T01:17:44.445Z,101711.87
2023-02-12T01:20:20.634Z,101703.69
2023-02-12T01:22:51.796Z,101712.06
2023-02-12T01:25:22.966Z,101718.13
2023-02-12T01:27:54.720Z,101716.59
2023-02-12T01:30:24.870Z,101724.88
2023-02-12T01:32:55.580Z,101722.57
2023-02-12T01:35:25.109Z,101726.56
2023-02-12T01:37:57.425Z,101719.86
2023-02-12T01:40:27.533Z,101726.26
2023-02-12T01:42:58.817Z,101727.69
2023-02-12T01:45:31.604Z,101727.60
2023-02-12T01:48:02.471Z,101721.89
2023-02-12T01:50:32.241Z,101732.46
2023-02-12T01:53:02.693Z,101742.73
2023-02-12T01:55:32.607Z,101753.02
2023-02-12T01:58:05.443Z,101758.44
2023-02-12T02:00:35.284Z,101757.48
2023-02-12T02:03:06.433Z,101754.85
2023-02-12T02:05:50.982Z,101757.97
2023-02-12T02:08:20.614Z,101766.63
2023-02-12T02:10:50.399Z,101766.63
2023-02-12T02:13:38.719Z,101772.02
2023-02-12T02:16:11.470Z,101767.98
2023-02-12T02:18:47.256Z,101771.55
2023-02-12T02:21:48.757Z,101779.88
2023-02-12T02:24:39.663Z,101780.98
2023-02-12T02:27:17.676Z,101773.73
2023-02-12T02:30:06.716Z,101771.97
2023-02-12T02:32:39.495Z,101778.90
2023-02-12T02:35:18.444Z,101779.55
2023-02-12T02:37:54.481Z,101776.27
2023-02-12T02:40:30.266Z,101775.41
2023-02-12T02:43:08.804Z,101780.62
2023-02-12T02:45:56.240Z,101783.91
2023-02-12T02:48:31.958Z,101784.88
2023-02-12T02:51:08.298Z,101793.58
2023-02-12T02:53:59.430Z,101793.58
2023-02-12T02:56:30.911Z,101793.58
2023-02-12T02:59:06.505Z,101794.81
2023-02-12T03:01:39.387Z,101802.98
2023-02-12T03:04:11.837Z,101802.28
2023-02-12T03:06:53.241Z,101803.43
2023-02-12T03:09:31.781Z,101810.89
2023-02-12T03:12:04.882Z,101804.41
2023-02-12T03:14:37.918Z,101801.46
2023-02-12T03:17:10.466Z,101803.84
2023-02-12T03:19:55.391Z,101816.17
2023-02-12T03:22:27.926Z,101816.17
2023-02-12T03:25:05.578Z,101822.89
2023-02-12T03:27:38.240Z,101830.08
2023-02-12T03:30:09.335Z,101830.69
2023-02-12T03:32:42.564Z,101828.95
2023-02-12T03:35:17.775Z,101833.27
2023-02-12T03:37:59.757Z,101839.05
2023-02-12T03:40:37.631Z,101845.05
2023-02-12T03:43:19.102Z,101847.86
2023-02-12T03:45:55.189Z,101851.42
2023-02-12T03:48:30.608Z,101855.81
2023-02-12T03:51:03.393Z,101856.83
2023-02-12T03:53:33.572Z,101860.83
2023-02-12T03:56:06.425Z,101863.31
2023-02-12T03:58:38.006Z,101874.18
2023-02-12T04:01:08.202Z,101872.08
2023-02-12T04:03:37.872Z,101872.12
2023-02-12T04:06:09.289Z,101880.41
2023-02-12T04:08:38.752Z,101881.86
2023-02-12T04:11:30.971Z,101887.83
2023-02-12T04:14:09.553Z,101889.29
2023-02-12T04:17:08.002Z,101894.23
2023-02-12T04:20:06.284Z,101899.71
2023-02-12T04:22:58.454Z,101897.98
2023-02-12T04:25:54.385Z,101899.00
2023-02-12T04:28:30.379Z,101899.64
2023-02-12T04:31:29.254Z,101903.50
2023-02-12T04:34:14.013Z,101903.39
2023-02-12T04:36:49.449Z,101911.52
2023-02-12T04:39:21.960Z,101915.95
2023-02-12T04:41:52.845Z,101920.41
2023-02-12T04:44:25.920Z,101921.48
2023-02-12T04:46:55.768Z,101920.39
2023-02-12T04:49:26.550Z,101924.81
2023-02-12T04:51:56.801Z,101924.22
2023-02-12T04:54:26.712Z,101925.53
2023-02-12T04:56:56.528Z,101934.06
2023-02-12T04:59:26.339Z,101930.16
2023-02-12T05:01:56.122Z,101936.45
2023-02-12T05:04:26.010Z,101936.09
2023-02-12T05:06:55.781Z,101940.20
2023-02-12T05:09:25.529Z,101942.52
2023-02-12T05:11:55.299Z,101937.53
2023-02-12T05:14:29.837Z,101938.89
2023-02-12T05:16:59.886Z,101943.34
2023-02-12T05:19:31.611Z,101947.73
2023-02-12T05:22:01.444Z,101948.70
2023-02-12T05:24:31.202Z,101954.57
2023-02-12T05:27:01.038Z,101957.72
2023-02-12T05:29:30.977Z,101957.72
2023-02-12T05:32:01.830Z,101959.58
2023-02-12T05:34:31.829Z,101959.50
2023-02-12T05:37:01.675Z,101969.44
2023-02-12T05:39:32.656Z,101971.14
2023-02-12T05:42:02.462Z,101974.28
2023-02-12T05:44:32.272Z,101973.42
2023-02-12T05:47:02.047Z,101978.63
2023-02-12T05:49:31.806Z,101979.19
2023-02-12T05:52:01.578Z,101977.53
2023-02-12T05:54:32.482Z,101986.95
2023-02-12T05:57:04.254Z,101991.65
2023-02-12T05:59:34.080Z,101991.65
2023-02-12T06:02:03.842Z,102001.25
2023-02-12T06:04:33.658Z,102001.94
2023-02-12T06:07:03.753Z,102005.42
2023-02-12T06:09:36.433Z,102012.13
2023-02-12T06:12:06.740Z,102019.41
2023-02-12T06:14:38.454Z,102019.41
2023-02-12T06:17:08.378Z,102025.38
2023-02-12T06:19:38.396Z,102027.77
2023-02-12T06:22:07.936Z,102033.46
2023-02-12T06:24:37.711Z,102036.56
2023-02-12T06:27:07.488Z,102050.27
2023-02-12T06:29:37.229Z,102051.22
2023-02-12T06:32:08.691Z,102063.19
2023-02-12T06:34:38.423Z,102067.87
2023-02-12T06:37:08.201Z,102071.74
2023-02-12T06:39:39.119Z,102076.28
2023-02-12T06:42:08.992Z,102076.31
2023-02-12T06:44:38.559Z,102082.97
2023-02-12T06:47:08.337Z,102081.63
2023-02-12T06:49:38.409Z,102089.59
2023-02-12T06:52:08.181Z,102091.83
2023-02-12T06:54:37.962Z,102099.41
2023-02-12T06:57:07.589Z,102100.31
2023-02-12T06:59:37.889Z,102105.05
2023-02-12T07:02:07.487Z,102092.50
2023-02-12T07:04:39.356Z,102103.93
2023-02-12T07:07:09.100Z,102102.20
2023-02-12T07:09:38.964Z,102101.47
2023-02-12T07:12:08.954Z,102101.53
2023-02-12T07:14:40.575Z,102114.23
2023-02-12T07:17:10.466Z,102119.92
2023-02-12T07:19:40.228Z,102121.02
2023-02-12T07:22:10.061Z,102128.18
2023-02-12T07:24:40.122Z,102127.42
2023-02-12T07:27:09.664Z,102126.27
2023-02-12T07:29:39.421Z,102126.27
2023-02-12T07:32:09.067Z,102129.41
2023-02-12T07:34:38.839Z,102129.41
2023-02-12T07:37:08.799Z,102128.80
2023-02-12T07:39:39.464Z,102136.02
2023-02-12T07:42:09.548Z,102136.13
2023-02-12T07:44:40.752Z,102134.63
2023-02-12T07:47:10.220Z,102141.89
2023-02-12T07:49:39.997Z,102141.31
2023-02-12T07:52:12.151Z,102143.90
2023-02-12T07:54:41.017Z,102148.25
2023-02-12T07:57:13.162Z,102148.61
2023-02-12T07:59:42.904Z,102155.52
2023-02-12T08:02:13.583Z,102157.59
2023-02-12T08:04:43.492Z,102163.71
2023-02-12T08:07:13.036Z,102163.71
2023-02-12T08:09:42.936Z,102165.77
2023-02-12T08:12:12.552Z,102170.62
2023-02-12T08:14:43.327Z,102169.88
2023-02-12T08:17:14.156Z,102172.70
2023-02-12T08:19:43.721Z,102175.33
2023-02-12T08:22:14.582Z,102168.31
2023-02-12T08:24:45.615Z,102174.30
2023-02-12T08:27:16.035Z,102167.11
2023-02-12T08:29:45.563Z,102169.49
2023-02-12T08:32:17.039Z,102175.55
2023-02-12T08:34:46.815Z,102177.82
2023-02-12T08:37:16.586Z,102180.41
2023-02-12T08:39:46.396Z,102182.21
2023-02-12T08:42:16.299Z,102182.84
2023-02-12T08:44:46.351Z,102183.46
2023-02-12T08:47:16.119Z,102178.41
2023-02-12T08:49:45.882Z,102171.91
2023-02-12T08:52:15.668Z,102176.95
2023-02-12T08:54:45.430Z,102179.41
2023-02-12T08:57:15.018Z,102183.80
2023-02-12T08:59:44.789Z,102192.80
2023-02-12T09:02:14.672Z,102196.22
2023-02-12T09:04:44.471Z,102203.86
2023-02-12T09:07:14.242Z,102203.86
2023-02-12T09:09:44.018Z,102206.44
2023-02-12T09:12:13.582Z,102208.20
2023-02-12T09:14:44.409Z,102213.37
2023-02-12T09:17:14.093Z,102218.66
2023-02-12T09:19:44.559Z,102215.58
2023-02-12T09:22:16.231Z,102225.47
2023-02-12T09:24:46.951Z,102217.92
2023-02-12T09:27:16.534Z,102218.39
2023-02-12T09:29:46.293Z,102226.63
2023-02-12T09:32:16.067Z,102225.92
2023-02-12T09:34:45.816Z,102227.16
2023-02-12T09:37:17.609Z,102232.16
2023-02-12T09:39:50.153Z,102229.86
2023-02-12T09:42:22.087Z,102237.53
2023-02-12T09:44:55.805Z,102236.92
2023-02-12T09:47:34.140Z,102234.66
2023-02-12T09:50:18.535Z,102237.05
2023-02-12T09:52:49.628Z,102237.86
2023-02-12T09:55:19.116Z,102242.67
2023-02-12T09:57:49.342Z,102241.81
2023-02-12T10:00:31.414Z,102246.37
2023-02-12T10:03:06.889Z,102242.82
2023-02-12T10:05:48.156Z,102242.82
2023-02-12T10:08:40.213Z,102234.81
2023-02-12T10:11:15.784Z,102237.22
2023-02-12T10:13:52.407Z,102240.73
2023-02-12T10:16:49.832Z,102229.81
2023-02-12T10:19:22.711Z,102230.80
2023-02-12T10:21:56.552Z,102225.81
2023-02-12T10:24:38.266Z,102219.02
2023-02-12T10:27:19.630Z,102222.05
2023-02-12T10:29:50.253Z,102220.20
2023-02-12T10:32:28.925Z,102220.24
2023-02-12T10:35:05.479Z,102218.26
2023-02-12T10:38:03.569Z,102215.95
2023-02-12T10:40:37.584Z,102215.95
2023-02-12T10:43:11.879Z,102209.64
2023-02-12T10:45:43.984Z,102209.64
2023-02-12T10:48:37.862Z,102201.38
2023-02-12T10:51:16.527Z,102209.30
2023-02-12T10:53:48.499Z,102201.14
2023-02-12T10:56:21.308Z,102202.63
2023-02-12T10:58:56.855Z,102209.00
2023-02-12T11:01:29.969Z,102201.12
2023-02-12T11:04:03.755Z,102211.62
2023-02-12T11:06:34.106Z,102211.39
2023-02-12T11:09:05.324Z,102203.89
2023-02-12T11:11:35.561Z,102201.44
2023-02-12T11:14:10.413Z,102200.07
2023-02-12T11:16:43.229Z,102194.72
2023-02-12T11:19:28.309Z,102187.17
2023-02-12T11:22:18.863Z,102187.20
2023-02-12T11:24:54.527Z,102198.67
2023-02-12T11:27:28.719Z,102192.78
2023-02-12T11:30:18.341Z,102191.23
2023-02-12T11:32:50.983Z,102199.27
2023-02-12T11:35:27.914Z,102191.25
2023-02-12T11:38:00.709Z,102191.25
2023-02-12T11:40:36.431Z,102192.39
2023-02-12T11:43:10.710Z,102200.32
2023-02-12T11:45:47.936Z,102200.74
2023-02-12T11:48:23.661Z,102199.83
2023-02-12T11:50:59.420Z,102198.11
2023-02-12T11:53:40.087Z,102195.55
2023-02-12T11:56:12.775Z,102195.02
2023-02-12T11:58:44.571Z,102197.20
2023-02-12T12:01:25.976Z,102200.39
2023-02-12T12:04:16.302Z,102204.47
2023-02-12T12:06:55.018Z,102205.28
2023-02-12T12:09:42.587Z,102201.41
2023-02-12T12:12:24.528Z,102201.06
2023-02-12T12:15:15.400Z,102199.58
2023-02-12T12:18:27.252Z,102186.42
2023-02-12T12:21:05.055Z,102189.28
2023-02-12T12:23:46.923Z,102190.98
2023-02-12T12:26:26.077Z,102189.84
2023-02-12T12:29:16.583Z,102190.84
2023-02-12T12:31:49.227Z,102187.58
2023-02-12T12:34:21.834Z,102189.27
2023-02-12T12:37:19.011Z,102187.20
2023-02-12T12:40:02.164Z,102191.41
2023-02-12T12:42:49.026Z,102180.95
2023-02-12T12:45:39.824Z,102185.26
2023-02-12T12:48:27.317Z,102185.77
2023-02-12T12:51:11.995Z,102178.36
2023-02-12T12:54:18.187Z,102178.87
2023-02-12T12:57:07.320Z,102178.28
2023-02-12T12:59:42.670Z,102173.91
2023-02-12T13:02:33.619Z,102180.05
2023-02-12T13:05:36.866Z,102180.05
2023-02-12T13:08:28.066Z,102178.52
2023-02-12T13:11:04.541Z,102179.59
2023-02-12T13:13:40.639Z,102171.94
2023-02-12T13:16:28.329Z,102171.94
2023-02-12T13:19:10.175Z,102173.51
2023-02-12T13:21:43.073Z,102171.84
2023-02-12T13:24:24.602Z,102171.47
2023-02-12T13:26:58.076Z,102177.62
2023-02-12T13:29:34.285Z,102185.95
2023-02-12T13:32:27.129Z,102185.95
2023-02-12T13:35:00.219Z,102188.94
2023-02-12T13:37:50.968Z,102191.31
2023-02-12T13:40:29.509Z,102186.61
2023-02-12T13:43:17.367Z,102199.63
2023-02-12T13:45:53.221Z,102196.86
2023-02-12T13:48:42.083Z,102196.03
2023-02-12T13:51:20.979Z,102187.69
2023-02-12T13:54:06.010Z,102186.03
2023-02-12T13:56:44.946Z,102184.84
2023-02-12T13:59:35.499Z,102183.73
2023-02-12T14:02:32.156Z,102178.20
2023-02-12T14:05:05.248Z,102180.66
2023-02-12T14:07:52.194Z,102180.30
2023-02-12T14:10:30.622Z,102186.09
2023-02-12T14:13:12.348Z,102186.37
2023-02-12T14:15:45.700Z,102186.37
2023-02-12T14:18:26.932Z,102186.70
2023-02-12T14:21:31.680Z,102184.31
2023-02-12T14:24:04.330Z,102184.08
2023-02-12T14:26:38.963Z,102178.09
2023-02-12T14:29:11.810Z,102184.33
2023-02-12T14:31:42.625Z,102185.64
2023-02-12T14:34:16.693Z,102186.30
2023-02-12T14:36:49.188Z,102186.97
2023-02-12T14:39:25.091Z,102188.36
2023-02-12T14:41:58.721Z,102184.48
2023-02-12T14:44:31.547Z,102183.45
2023-02-12T14:47:05.117Z,102186.14
2023-02-12T14:49:42.324Z,102191.87
2023-02-12T14:52:19.930Z,102188.41
2023-02-12T14:54:52.986Z,102194.41
2023-02-12T14:57:31.321Z,102194.00
2023-02-12T15:00:18.923Z,102190.36
2023-02-12T15:03:00.576Z,102193.16
2023-02-12T15:05:37.320Z,102193.65
2023-02-12T15:08:10.005Z,102191.52
2023-02-12T15:10:42.831Z,102189.84
2023-02-12T15:13:36.505Z,102193.65
2023-02-12T15:16:29.714Z,102190.66
2023-02-12T15:19:26.895Z,102185.80
2023-02-12T15:21:57.124Z,102191.06
2023-02-12T15:24:28.332Z,102185.38
2023-02-12T15:27:01.039Z,102196.83
2023-02-12T15:29:49.455Z,102190.95
2023-02-12T15:32:28.686Z,102191.38
2023-02-12T15:34:58.607Z,102201.19
2023-02-12T15:37:31.505Z,102202.81
2023-02-12T15:40:04.106Z,102206.48
2023-02-12T15:42:38.424Z,102209.62
2023-02-12T15:45:17.048Z,102207.16
2023-02-12T15:47:49.236Z,102207.76
2023-02-12T15:50:19.503Z,102199.95
2023-02-12T15:52:52.313Z,102205.47
2023-02-12T15:55:27.304Z,102208.39
2023-02-12T15:58:02.456Z,102205.30
2023-02-12T16:00:44.062Z,102213.70
2023-02-12T16:03:26.154Z,102212.39
2023-02-12T16:06:04.611Z,102208.94
2023-02-12T16:08:37.528Z,102211.58
2023-02-12T16:11:15.913Z,102213.02
2023-02-12T16:13:52.473Z,102216.14
2023-02-12T16:16:30.638Z,102216.95
2023-02-12T16:19:23.559Z,102221.48
2023-02-12T16:21:56.387Z,102222.72
2023-02-12T16:24:35.143Z,102233.19
2023-02-12T16:27:19.955Z,102235.31
2023-02-12T16:29:53.164Z,102230.13
2023-02-12T16:32:39.929Z,102235.19
2023-02-12T16:35:16.680Z,102239.63
2023-02-12T16:37:52.389Z,102241.44
2023-02-12T16:40:26.110Z,102235.09
2023-02-12T16:43:04.615Z,102235.09
2023-02-12T16:45:39.051Z,102240.30
2023-02-12T16:48:25.596Z,102247.21
2023-02-12T16:50:59.852Z,102238.08
2023-02-12T16:53:33.537Z,102238.05
2023-02-12T16:56:05.593Z,102240.45
2023-02-12T16:58:35.655Z,102232.42
2023-02-12T17:01:06.771Z,102234.07
2023-02-12T17:03:38.498Z,102237.75
2023-02-12T17:06:08.373Z,102240.67
2023-02-12T17:08:38.158Z,102239.22
2023-02-12T17:11:10.734Z,102246.92
2023-02-12T17:13:40.220Z,102244.59
2023-02-12T17:16:12.728Z,102256.94
2023-02-12T17:18:43.172Z,102256.94
2023-02-12T17:21:35.117Z,102252.84
2023-02-12T17:24:10.166Z,102253.48
2023-02-12T17:26:50.827Z,102254.52
2023-02-12T17:29:26.496Z,102255.08
2023-02-12T17:32:44.973Z,102248.09
2023-02-12T17:35:17.542Z,102245.82
2023-02-12T17:37:48.113Z,102252.62
2023-02-12T17:40:17.820Z,102254.93
2023-02-12T17:42:47.897Z,102258.73
2023-02-12T17:45:17.981Z,102256.52
2023-02-12T17:47:47.838Z,102255.55
2023-02-12T17:50:17.910Z,102265.10
2023-02-12T17:52:47.848Z,102260.39
2023-02-12T17:55:17.808Z,102258.12
2023-02-12T17:57:47.577Z,102256.31
2023-02-12T18:00:18.154Z,102257.15
2023-02-12T18:02:53.616Z,102256.98
2023-02-12T18:05:26.690Z,102262.92
2023-02-12T18:08:09.304Z,102252.26
2023-02-12T18:10:42.650Z,102252.26
2023-02-12T18:13:13.937Z,102262.42
2023-02-12T18:15:42.842Z,102257.80
2023-02-12T18:18:12.807Z,102258.13
2023-02-12T18:20:42.539Z,102254.75
2023-02-12T18:23:12.565Z,102256.66
2023-02-12T18:25:45.724Z,102254.27
2023-02-12T18:28:15.559Z,102254.19
2023-02-12T18:30:45.480Z,102252.23
2023-02-12T18:33:16.892Z,102255.73
2023-02-12T18:36:04.661Z,102260.63
2023-02-12T18:38:38.529Z,102256.75
2023-02-12T18:41:16.283Z,102250.50
2023-02-12T18:43:49.140Z,102256.17
2023-02-12T18:46:24.446Z,102252.26
2023-02-12T18:48:55.556Z,102247.66
2023-02-12T18:51:27.933Z,102245.14
2023-02-12T18:54:03.058Z,102248.02
2023-02-12T18:56:36.000Z,102244.31
2023-02-12T18:59:07.930Z,102246.80
2023-02-12T19:01:38.103Z,102245.64
2023-02-12T19:04:09.358Z,102241.47
2023-02-12T19:06:46.475Z,102241.83
2023-02-12T19:09:20.191Z,102243.27
2023-02-12T19:11:52.019Z,102247.78
2023-02-12T19:14:23.783Z,102242.43
2023-02-12T19:16:54.023Z,102245.22
2023-02-12T19:19:24.071Z,102249.63
2023-02-12T19:21:53.806Z,102254.63
2023-02-12T19:24:23.317Z,102256.81
2023-02-12T19:26:54.483Z,102247.66
2023-02-12T19:29:24.824Z,102245.42
2023-02-12T19:31:54.871Z,102250.56
2023-02-12T19:34:26.046Z,102250.14
2023-02-12T19:36:55.534Z,102239.27
2023-02-12T19:39:25.950Z,102250.44
2023-02-12T19:41:56.270Z,102251.02
2023-02-12T19:44:26.907Z,102253.32
2023-02-12T19:46:57.984Z,102250.76
2023-02-12T19:49:29.486Z,102253.03
2023-02-12T19:51:59.430Z,102250.39
2023-02-12T19:54:29.288Z,102253.28
2023-02-12T19:56:59.120Z,102254.41
2023-02-12T19:59:28.950Z,102260.78
2023-02-12T20:01:58.736Z,102255.56
2023-02-12T20:04:28.558Z,102253.41
2023-02-12T20:07:02.520Z,102251.34
2023-02-12T20:09:32.449Z,102251.17
2023-02-12T20:12:02.185Z,102252.23
2023-02-12T20:14:33.020Z,102245.28
2023-02-12T20:17:04.552Z,102254.02
2023-02-12T20:19:34.421Z,102254.25
2023-02-12T20:22:05.044Z,102253.35
2023-02-12T20:24:35.386Z,102253.95
2023-02-12T20:27:07.150Z,102247.62
2023-02-12T20:29:37.346Z,102252.26
2023-02-12T20:32:09.377Z,102247.45
2023-02-12T20:34:50.436Z,102247.42
2023-02-12T20:37:13.953Z,102251.45
2023-02-12T20:39:43.583Z,102256.43
2023-02-12T20:42:13.209Z,102256.43
2023-02-12T20:44:42.988Z,102262.03
2023-02-12T20:47:12.694Z,102263.50
2023-02-12T20:49:42.574Z,102259.80
2023-02-12T20:52:12.394Z,102259.03
2023-02-12T20:54:42.234Z,102261.23
2023-02-12T20:57:12.181Z,102261.23
2023-02-12T20:59:42.153Z,102262.82
2023-02-12T21:02:13.220Z,102257.41
2023-02-12T21:04:43.419Z,102256.27
2023-02-12T21:07:14.025Z,102254.98
2023-02-12T21:09:45.093Z,102254.98
2023-02-12T21:12:14.937Z,102251.30
2023-02-12T21:14:45.630Z,102255.09
2023-02-12T21:17:16.014Z,102258.88
2023-02-12T21:19:45.986Z,102257.72
2023-02-12T21:22:15.461Z,102258.94
2023-02-12T21:24:46.146Z,102260.76
2023-02-12T21:27:15.766Z,102260.40
2023-02-12T21:29:46.442Z,102256.04
2023-02-12T21:32:16.732Z,102255.12
2023-02-12T21:34:50.048Z,102249.61
2023-02-12T21:37:19.746Z,102242.77
2023-02-12T21:39:49.554Z,102244.69
2023-02-12T21:42:19.187Z,102241.52
2023-02-12T21:44:49.933Z,102241.52
2023-02-12T21:47:19.869Z,102238.17
2023-02-12T21:49:51.954Z,102239.85
2023-02-12T21:52:21.020Z,102235.94
2023-02-12T21:54:51.757Z,102241.13
2023-02-12T21:57:23.420Z,102243.37
2023-02-12T21:59:53.195Z,102243.96
2023-02-12T22:02:23.956Z,102249.67
2023-02-12T22:04:55.717Z,102249.81
2023-02-12T22:07:26.419Z,102249.81
2023-02-12T22:09:57.341Z,102248.55
2023-02-12T22:12:28.741Z,102257.36
2023-02-12T22:14:57.489Z,102253.01
2023-02-12T22:17:26.896Z,102260.17
2023-02-12T22:19:56.676Z,102257.38
2023-02-12T22:22:26.606Z,102257.38
2023-02-12T22:24:56.474Z,102253.61
2023-02-12T22:27:26.300Z,102252.88
2023-02-12T22:29:56.310Z,102252.88
2023-02-12T22:32:26.839Z,102248.83
2023-02-12T22:35:03.024Z,102253.22
2023-02-12T22:37:33.925Z,102251.21
2023-02-12T22:40:03.389Z,102252.97
2023-02-12T22:42:33.354Z,102254.67
2023-02-12T22:45:03.254Z,102249.09
2023-02-12T22:47:34.976Z,102250.80
2023-02-12T22:50:04.962Z,102251.16
2023-02-12T22:52:35.054Z,102246.41
2023-02-12T22:55:05.035Z,102251.23
2023-02-12T22:57:38.038Z,102248.45
2023-02-12T23:00:10.266Z,102254.95
2023-02-12T23:02:42.129Z,102249.12
2023-02-12T23:05:12.829Z,102253.27
2023-02-12T23:07:42.843Z,102253.95
2023-02-12T23:10:12.977Z,102252.34
2023-02-12T23:12:42.753Z,102245.52
2023-02-12T23:15:12.545Z,102245.52
2023-02-12T23:17:42.359Z,102258.61
2023-02-12T23:20:13.424Z,102252.94
2023-02-12T23:22:42.250Z,102249.41
2023-02-12T23:25:12.027Z,102238.46
2023-02-12T23:27:42.671Z,102238.06
2023-02-12T23:30:12.639Z,102234.80
2023-02-12T23:32:42.688Z,102242.39
2023-02-12T23:35:12.472Z,102239.62
2023-02-12T23:37:42.239Z,102239.62
2023-02-12T23:40:12.691Z,102239.17
2023-02-12T23:42:46.488Z,102235.97
2023-02-12T23:45:16.400Z,102235.35
2023-02-12T23:47:48.109Z,102235.35
2023-02-12T23:50:18.127Z,102231.38
2023-02-12T23:52:47.874Z,102229.34
2023-02-12T23:55:19.534Z,102231.70
2023-02-12T23:57:50.415Z,102228.00
